sensor_id;sensor_type;location;lat;lon;timestamp;P1;durP1;ratioP1;P2;durP2;ratioP2
50932;SDS011;36921;49.006;9.292;2024-02-26T00:01:36;1.13;;;0.70;;
50932;SDS011;36921;49.006;9.292;2024-02-26T00:04:02;1.33;;;0.80;;
50932;SDS011;36921;49.006;9.292;2024-02-26T00:06:28;1.92;;;0.80;;
50932;SDS011;36921;49.006;9.292;2024-02-26T00:08:54;1.52;;;0.70;;
50932;SDS011;36921;49.006;9.292;2024-02-26T00:11:19;1.90;;;0.88;;
50932;SDS011;36921;49.006;9.292;2024-02-26T00:13:44;3.40;;;0.85;;
50932;SDS011;36921;49.006;9.292;2024-02-26T00:16:10;2.45;;;0.70;;
50932;SDS011;36921;49.006;9.292;2024-02-26T00:18:35;1.80;;;0.90;;
50932;SDS011;36921;49.006;9.292;2024-02-26T00:21:01;2.35;;;0.77;;
50932;SDS011;36921;49.006;9.292;2024-02-26T00:23:27;2.08;;;0.95;;
50932;SDS011;36921;49.006;9.292;2024-02-26T00:25:52;2.70;;;1.10;;
50932;SDS011;36921;49.006;9.292;2024-02-26T00:28:18;2.00;;;0.82;;
50932;SDS011;36921;49.006;9.292;2024-02-26T00:30:45;1.48;;;0.90;;
50932;SDS011;36921;49.006;9.292;2024-02-26T00:33:10;1.92;;;0.88;;
50932;SDS011;36921;49.006;9.292;2024-02-26T00:35:36;1.88;;;0.73;;
50932;SDS011;36921;49.006;9.292;2024-02-26T00:38:01;1.60;;;0.80;;
50932;SDS011;36921;49.006;9.292;2024-02-26T00:40:28;1.73;;;0.70;;
50932;SDS011;36921;49.006;9.292;2024-02-26T00:42:53;2.95;;;0.95;;
50932;SDS011;36921;49.006;9.292;2024-02-26T00:45:18;2.33;;;0.88;;
50932;SDS011;36921;49.006;9.292;2024-02-26T00:47:44;1.58;;;1.10;;
50932;SDS011;36921;49.006;9.292;2024-02-26T00:50:10;1.88;;;0.80;;
50932;SDS011;36921;49.006;9.292;2024-02-26T00:52:35;1.33;;;0.80;;
50932;SDS011;36921;49.006;9.292;2024-02-26T00:55:01;1.77;;;0.73;;
50932;SDS011;36921;49.006;9.292;2024-02-26T00:57:27;1.45;;;0.82;;
50932;SDS011;36921;49.006;9.292;2024-02-26T00:59:53;3.05;;;0.80;;
50932;SDS011;36921;49.006;9.292;2024-02-26T01:02:20;3.75;;;0.80;;
50932;SDS011;36921;49.006;9.292;2024-02-26T01:04:45;2.75;;;0.90;;
50932;SDS011;36921;49.006;9.292;2024-02-26T01:07:10;1.95;;;0.80;;
50932;SDS011;36921;49.006;9.292;2024-02-26T01:09:36;1.63;;;0.88;;
50932;SDS011;36921;49.006;9.292;2024-02-26T01:12:01;1.70;;;0.82;;
50932;SDS011;36921;49.006;9.292;2024-02-26T01:14:27;2.28;;;0.90;;
50932;SDS011;36921;49.006;9.292;2024-02-26T01:16:53;1.38;;;0.82;;
50932;SDS011;36921;49.006;9.292;2024-02-26T01:19:18;1.08;;;0.68;;
50932;SDS011;36921;49.006;9.292;2024-02-26T01:21:44;1.90;;;0.90;;
50932;SDS011;36921;49.006;9.292;2024-02-26T01:24:09;1.92;;;0.80;;
50932;SDS011;36921;49.006;9.292;2024-02-26T01:26:34;1.85;;;0.80;;
50932;SDS011;36921;49.006;9.292;2024-02-26T01:28:59;2.05;;;0.75;;
50932;SDS011;36921;49.006;9.292;2024-02-26T01:31:25;3.08;;;0.82;;
50932;SDS011;36921;49.006;9.292;2024-02-26T01:33:50;2.33;;;0.82;;
50932;SDS011;36921;49.006;9.292;2024-02-26T01:36:16;1.10;;;0.70;;
50932;SDS011;36921;49.006;9.292;2024-02-26T01:38:41;1.95;;;0.65;;
50932;SDS011;36921;49.006;9.292;2024-02-26T01:41:06;3.65;;;0.82;;
50932;SDS011;36921;49.006;9.292;2024-02-26T01:43:32;1.85;;;0.90;;
50932;SDS011;36921;49.006;9.292;2024-02-26T01:45:57;1.40;;;0.70;;
50932;SDS011;36921;49.006;9.292;2024-02-26T01:48:23;1.60;;;0.70;;
50932;SDS011;36921;49.006;9.292;2024-02-26T01:50:49;1.15;;;0.68;;
50932;SDS011;36921;49.006;9.292;2024-02-26T01:53:15;0.88;;;0.57;;
50932;SDS011;36921;49.006;9.292;2024-02-26T01:55:41;1.58;;;0.77;;
50932;SDS011;36921;49.006;9.292;2024-02-26T01:58:07;3.03;;;0.80;;
50932;SDS011;36921;49.006;9.292;2024-02-26T02:00:32;4.07;;;0.90;;
50932;SDS011;36921;49.006;9.292;2024-02-26T02:02:57;2.85;;;1.20;;
50932;SDS011;36921;49.006;9.292;2024-02-26T02:05:23;1.83;;;1.00;;
50932;SDS011;36921;49.006;9.292;2024-02-26T02:07:49;1.55;;;0.80;;
50932;SDS011;36921;49.006;9.292;2024-02-26T02:10:16;2.90;;;0.90;;
50932;SDS011;36921;49.006;9.292;2024-02-26T02:12:43;1.58;;;0.88;;
50932;SDS011;36921;49.006;9.292;2024-02-26T02:15:08;1.13;;;0.70;;
50932;SDS011;36921;49.006;9.292;2024-02-26T02:17:34;1.42;;;0.82;;
50932;SDS011;36921;49.006;9.292;2024-02-26T02:19:59;3.05;;;1.20;;
50932;SDS011;36921;49.006;9.292;2024-02-26T02:22:24;1.05;;;0.70;;
50932;SDS011;36921;49.006;9.292;2024-02-26T02:24:51;2.67;;;0.90;;
50932;SDS011;36921;49.006;9.292;2024-02-26T02:27:17;3.38;;;0.70;;
50932;SDS011;36921;49.006;9.292;2024-02-26T02:29:42;1.52;;;0.70;;
50932;SDS011;36921;49.006;9.292;2024-02-26T02:32:08;1.73;;;0.82;;
50932;SDS011;36921;49.006;9.292;2024-02-26T02:34:34;1.33;;;0.75;;
50932;SDS011;36921;49.006;9.292;2024-02-26T02:37:00;1.63;;;0.80;;
50932;SDS011;36921;49.006;9.292;2024-02-26T02:39:25;3.42;;;1.00;;
50932;SDS011;36921;49.006;9.292;2024-02-26T02:41:51;1.60;;;0.90;;
50932;SDS011;36921;49.006;9.292;2024-02-26T02:44:16;2.88;;;0.70;;
50932;SDS011;36921;49.006;9.292;2024-02-26T02:46:41;2.05;;;1.00;;
50932;SDS011;36921;49.006;9.292;2024-02-26T02:49:10;1.52;;;0.90;;
50932;SDS011;36921;49.006;9.292;2024-02-26T02:51:35;3.13;;;1.25;;
50932;SDS011;36921;49.006;9.292;2024-02-26T02:54:01;2.05;;;1.10;;
50932;SDS011;36921;49.006;9.292;2024-02-26T02:56:26;1.45;;;0.90;;
50932;SDS011;36921;49.006;9.292;2024-02-26T02:58:52;2.45;;;1.00;;
50932;SDS011;36921;49.006;9.292;2024-02-26T03:01:17;3.83;;;1.10;;
50932;SDS011;36921;49.006;9.292;2024-02-26T03:03:42;2.67;;;1.05;;
50932;SDS011;36921;49.006;9.292;2024-02-26T03:06:07;2.15;;;1.08;;
50932;SDS011;36921;49.006;9.292;2024-02-26T03:08:33;2.20;;;1.10;;
50932;SDS011;36921;49.006;9.292;2024-02-26T03:11:01;3.15;;;1.15;;
50932;SDS011;36921;49.006;9.292;2024-02-26T03:13:27;2.35;;;1.15;;
50932;SDS011;36921;49.006;9.292;2024-02-26T03:15:52;2.63;;;1.10;;
50932;SDS011;36921;49.006;9.292;2024-02-26T03:18:17;3.17;;;1.33;;
50932;SDS011;36921;49.006;9.292;2024-02-26T03:20:42;2.30;;;1.15;;
50932;SDS011;36921;49.006;9.292;2024-02-26T03:23:08;1.75;;;0.90;;
50932;SDS011;36921;49.006;9.292;2024-02-26T03:25:36;2.33;;;0.88;;
50932;SDS011;36921;49.006;9.292;2024-02-26T03:28:02;2.17;;;1.10;;
50932;SDS011;36921;49.006;9.292;2024-02-26T03:30:27;1.77;;;0.82;;
50932;SDS011;36921;49.006;9.292;2024-02-26T03:32:53;1.23;;;0.90;;
50932;SDS011;36921;49.006;9.292;2024-02-26T03:35:18;2.05;;;1.13;;
50932;SDS011;36921;49.006;9.292;2024-02-26T03:37:43;2.40;;;1.23;;
50932;SDS011;36921;49.006;9.292;2024-02-26T03:40:10;1.52;;;0.70;;
50932;SDS011;36921;49.006;9.292;2024-02-26T03:42:38;1.75;;;1.05;;
50932;SDS011;36921;49.006;9.292;2024-02-26T03:45:03;3.10;;;0.93;;
50932;SDS011;36921;49.006;9.292;2024-02-26T03:47:28;1.33;;;0.80;;
50932;SDS011;36921;49.006;9.292;2024-02-26T03:49:54;1.35;;;0.90;;
50932;SDS011;36921;49.006;9.292;2024-02-26T03:52:19;3.00;;;1.20;;
50932;SDS011;36921;49.006;9.292;2024-02-26T03:54:44;2.10;;;1.10;;
50932;SDS011;36921;49.006;9.292;2024-02-26T03:57:09;2.97;;;1.17;;
50932;SDS011;36921;49.006;9.292;2024-02-26T03:59:35;2.60;;;1.30;;
50932;SDS011;36921;49.006;9.292;2024-02-26T04:02:00;5.35;;;1.40;;
50932;SDS011;36921;49.006;9.292;2024-02-26T04:04:30;3.97;;;1.85;;
50932;SDS011;36921;49.006;9.292;2024-02-26T04:06:59;4.93;;;1.70;;
50932;SDS011;36921;49.006;9.292;2024-02-26T04:09:26;2.88;;;1.55;;
50932;SDS011;36921;49.006;9.292;2024-02-26T04:11:51;2.03;;;1.05;;
50932;SDS011;36921;49.006;9.292;2024-02-26T04:16:46;3.05;;;1.10;;
50932;SDS011;36921;49.006;9.292;2024-02-26T04:19:16;3.08;;;1.10;;
50932;SDS011;36921;49.006;9.292;2024-02-26T04:21:42;2.25;;;0.80;;
50932;SDS011;36921;49.006;9.292;2024-02-26T04:24:07;1.60;;;0.90;;
50932;SDS011;36921;49.006;9.292;2024-02-26T04:26:33;1.65;;;1.00;;
50932;SDS011;36921;49.006;9.292;2024-02-26T04:28:58;2.83;;;1.00;;
50932;SDS011;36921;49.006;9.292;2024-02-26T04:31:24;3.13;;;0.93;;
50932;SDS011;36921;49.006;9.292;2024-02-26T04:33:49;2.50;;;1.10;;
50932;SDS011;36921;49.006;9.292;2024-02-26T04:36:15;1.85;;;1.08;;
50932;SDS011;36921;49.006;9.292;2024-02-26T04:38:41;1.27;;;0.85;;
50932;SDS011;36921;49.006;9.292;2024-02-26T04:41:07;1.90;;;0.80;;
50932;SDS011;36921;49.006;9.292;2024-02-26T04:43:33;1.60;;;0.82;;
50932;SDS011;36921;49.006;9.292;2024-02-26T04:45:58;3.83;;;0.98;;
50932;SDS011;36921;49.006;9.292;2024-02-26T04:48:24;1.60;;;0.70;;
50932;SDS011;36921;49.006;9.292;2024-02-26T04:50:49;1.52;;;0.73;;
50932;SDS011;36921;49.006;9.292;2024-02-26T04:53:15;0.82;;;0.65;;
50932;SDS011;36921;49.006;9.292;2024-02-26T04:55:40;1.70;;;0.82;;
50932;SDS011;36921;49.006;9.292;2024-02-26T04:58:05;1.25;;;0.52;;
50932;SDS011;36921;49.006;9.292;2024-02-26T05:00:31;2.88;;;0.70;;
50932;SDS011;36921;49.006;9.292;2024-02-26T05:02:56;1.23;;;0.70;;
50932;SDS011;36921;49.006;9.292;2024-02-26T05:05:22;1.63;;;0.55;;
50932;SDS011;36921;49.006;9.292;2024-02-26T05:07:47;1.10;;;0.60;;
50932;SDS011;36921;49.006;9.292;2024-02-26T05:10:13;1.80;;;0.70;;
50932;SDS011;36921;49.006;9.292;2024-02-26T05:12:38;1.27;;;0.60;;
50932;SDS011;36921;49.006;9.292;2024-02-26T05:15:04;1.15;;;0.65;;
50932;SDS011;36921;49.006;9.292;2024-02-26T05:17:30;0.93;;;0.68;;
50932;SDS011;36921;49.006;9.292;2024-02-26T05:19:55;2.13;;;0.85;;
50932;SDS011;36921;49.006;9.292;2024-02-26T05:22:20;1.23;;;0.60;;
50932;SDS011;36921;49.006;9.292;2024-02-26T05:24:48;1.10;;;0.70;;
50932;SDS011;36921;49.006;9.292;2024-02-26T05:27:13;1.13;;;0.82;;
50932;SDS011;36921;49.006;9.292;2024-02-26T05:29:39;3.00;;;0.90;;
50932;SDS011;36921;49.006;9.292;2024-02-26T05:32:07;5.30;;;1.88;;
50932;SDS011;36921;49.006;9.292;2024-02-26T05:34:33;3.47;;;0.95;;
50932;SDS011;36921;49.006;9.292;2024-02-26T05:36:58;1.27;;;0.65;;
50932;SDS011;36921;49.006;9.292;2024-02-26T05:39:25;2.13;;;1.17;;
50932;SDS011;36921;49.006;9.292;2024-02-26T05:41:50;2.45;;;1.10;;
50932;SDS011;36921;49.006;9.292;2024-02-26T05:44:17;1.50;;;0.90;;
50932;SDS011;36921;49.006;9.292;2024-02-26T05:46:43;5.50;;;3.08;;
50932;SDS011;36921;49.006;9.292;2024-02-26T05:49:08;5.13;;;3.22;;
50932;SDS011;36921;49.006;9.292;2024-02-26T05:51:34;1.58;;;0.70;;
50932;SDS011;36921;49.006;9.292;2024-02-26T05:53:59;1.50;;;0.80;;
50932;SDS011;36921;49.006;9.292;2024-02-26T05:56:24;1.65;;;0.80;;
50932;SDS011;36921;49.006;9.292;2024-02-26T05:58:50;1.38;;;0.70;;
50932;SDS011;36921;49.006;9.292;2024-02-26T06:01:16;1.70;;;0.63;;
50932;SDS011;36921;49.006;9.292;2024-02-26T06:03:42;1.52;;;0.85;;
50932;SDS011;36921;49.006;9.292;2024-02-26T06:06:09;1.52;;;0.80;;
50932;SDS011;36921;49.006;9.292;2024-02-26T06:08:40;2.47;;;1.17;;
50932;SDS011;36921;49.006;9.292;2024-02-26T06:11:06;3.30;;;1.25;;
50932;SDS011;36921;49.006;9.292;2024-02-26T06:13:32;1.52;;;0.90;;
50932;SDS011;36921;49.006;9.292;2024-02-26T06:15:58;5.00;;;1.20;;
50932;SDS011;36921;49.006;9.292;2024-02-26T06:18:23;3.00;;;1.10;;
50932;SDS011;36921;49.006;9.292;2024-02-26T06:20:49;7.65;;;1.40;;
50932;SDS011;36921;49.006;9.292;2024-02-26T06:23:14;3.25;;;1.98;;
50932;SDS011;36921;49.006;9.292;2024-02-26T06:25:40;2.72;;;1.48;;
50932;SDS011;36921;49.006;9.292;2024-02-26T06:28:07;3.38;;;1.40;;
50932;SDS011;36921;49.006;9.292;2024-02-26T06:30:33;3.00;;;1.42;;
50932;SDS011;36921;49.006;9.292;2024-02-26T06:32:58;2.80;;;1.38;;
50932;SDS011;36921;49.006;9.292;2024-02-26T06:35:24;4.70;;;1.60;;
50932;SDS011;36921;49.006;9.292;2024-02-26T06:37:49;3.92;;;1.75;;
50932;SDS011;36921;49.006;9.292;2024-02-26T06:40:17;5.53;;;2.22;;
50932;SDS011;36921;49.006;9.292;2024-02-26T06:42:43;5.20;;;2.42;;
50932;SDS011;36921;49.006;9.292;2024-02-26T06:45:09;9.77;;;3.45;;
50932;SDS011;36921;49.006;9.292;2024-02-26T06:47:35;6.32;;;2.58;;
50932;SDS011;36921;49.006;9.292;2024-02-26T06:50:00;6.40;;;3.13;;
50932;SDS011;36921;49.006;9.292;2024-02-26T06:52:26;7.47;;;3.67;;
50932;SDS011;36921;49.006;9.292;2024-02-26T06:54:52;9.27;;;3.20;;
50932;SDS011;36921;49.006;9.292;2024-02-26T06:57:19;5.20;;;2.45;;
50932;SDS011;36921;49.006;9.292;2024-02-26T07:02:13;4.65;;;1.50;;
50932;SDS011;36921;49.006;9.292;2024-02-26T07:04:39;4.40;;;2.03;;
50932;SDS011;36921;49.006;9.292;2024-02-26T07:07:05;4.10;;;1.58;;
50932;SDS011;36921;49.006;9.292;2024-02-26T07:09:31;4.63;;;1.73;;
50932;SDS011;36921;49.006;9.292;2024-02-26T07:11:56;4.18;;;1.52;;
50932;SDS011;36921;49.006;9.292;2024-02-26T07:14:22;5.90;;;1.80;;
50932;SDS011;36921;49.006;9.292;2024-02-26T07:16:47;3.05;;;1.80;;
50932;SDS011;36921;49.006;9.292;2024-02-26T07:19:13;4.85;;;2.00;;
50932;SDS011;36921;49.006;9.292;2024-02-26T07:21:38;5.07;;;1.75;;
50932;SDS011;36921;49.006;9.292;2024-02-26T07:24:04;3.45;;;1.65;;
50932;SDS011;36921;49.006;9.292;2024-02-26T07:26:30;4.28;;;1.90;;
50932;SDS011;36921;49.006;9.292;2024-02-26T07:28:56;3.45;;;1.58;;
50932;SDS011;36921;49.006;9.292;2024-02-26T07:31:21;4.80;;;2.15;;
50932;SDS011;36921;49.006;9.292;2024-02-26T07:33:46;7.57;;;2.88;;
50932;SDS011;36921;49.006;9.292;2024-02-26T07:36:12;7.40;;;3.42;;
50932;SDS011;36921;49.006;9.292;2024-02-26T07:38:37;6.90;;;3.10;;
50932;SDS011;36921;49.006;9.292;2024-02-26T07:41:03;5.93;;;2.50;;
50932;SDS011;36921;49.006;9.292;2024-02-26T07:43:28;4.35;;;2.10;;
50932;SDS011;36921;49.006;9.292;2024-02-26T07:45:54;4.15;;;1.83;;
50932;SDS011;36921;49.006;9.292;2024-02-26T07:48:20;6.32;;;2.85;;
50932;SDS011;36921;49.006;9.292;2024-02-26T07:50:45;4.32;;;2.28;;
50932;SDS011;36921;49.006;9.292;2024-02-26T07:53:11;4.40;;;2.33;;
50932;SDS011;36921;49.006;9.292;2024-02-26T07:55:36;3.85;;;1.95;;
50932;SDS011;36921;49.006;9.292;2024-02-26T07:58:02;4.25;;;1.77;;
50932;SDS011;36921;49.006;9.292;2024-02-26T08:00:28;5.38;;;1.98;;
50932;SDS011;36921;49.006;9.292;2024-02-26T08:02:53;4.22;;;1.75;;
50932;SDS011;36921;49.006;9.292;2024-02-26T08:05:19;5.65;;;1.95;;
50932;SDS011;36921;49.006;9.292;2024-02-26T08:07:44;4.18;;;1.90;;
50932;SDS011;36921;49.006;9.292;2024-02-26T08:10:10;5.30;;;2.42;;
50932;SDS011;36921;49.006;9.292;2024-02-26T08:12:38;11.00;;;4.93;;
50932;SDS011;36921;49.006;9.292;2024-02-26T08:15:03;13.18;;;7.38;;
50932;SDS011;36921;49.006;9.292;2024-02-26T08:17:30;9.30;;;5.25;;
50932;SDS011;36921;49.006;9.292;2024-02-26T08:19:55;8.35;;;4.10;;
50932;SDS011;36921;49.006;9.292;2024-02-26T08:22:22;4.45;;;2.90;;
50932;SDS011;36921;49.006;9.292;2024-02-26T08:24:47;2.60;;;1.40;;
50932;SDS011;36921;49.006;9.292;2024-02-26T08:27:13;3.65;;;1.90;;
50932;SDS011;36921;49.006;9.292;2024-02-26T08:29:38;5.70;;;2.30;;
50932;SDS011;36921;49.006;9.292;2024-02-26T08:32:04;4.80;;;1.98;;
50932;SDS011;36921;49.006;9.292;2024-02-26T08:34:30;2.97;;;2.00;;
50932;SDS011;36921;49.006;9.292;2024-02-26T08:36:56;3.38;;;1.60;;
50932;SDS011;36921;49.006;9.292;2024-02-26T08:39:21;2.55;;;1.38;;
50932;SDS011;36921;49.006;9.292;2024-02-26T08:41:47;1.92;;;1.30;;
50932;SDS011;36921;49.006;9.292;2024-02-26T08:44:12;3.75;;;1.20;;
50932;SDS011;36921;49.006;9.292;2024-02-26T08:46:39;2.38;;;1.35;;
50932;SDS011;36921;49.006;9.292;2024-02-26T08:49:04;2.47;;;1.55;;
50932;SDS011;36921;49.006;9.292;2024-02-26T08:51:29;3.25;;;1.60;;
50932;SDS011;36921;49.006;9.292;2024-02-26T08:53:55;2.75;;;1.30;;
50932;SDS011;36921;49.006;9.292;2024-02-26T08:56:21;4.00;;;1.50;;
50932;SDS011;36921;49.006;9.292;2024-02-26T08:58:47;2.17;;;1.50;;
50932;SDS011;36921;49.006;9.292;2024-02-26T09:01:14;3.85;;;1.40;;
50932;SDS011;36921;49.006;9.292;2024-02-26T09:03:40;1.73;;;1.35;;
50932;SDS011;36921;49.006;9.292;2024-02-26T09:06:05;2.60;;;1.90;;
50932;SDS011;36921;49.006;9.292;2024-02-26T09:08:32;3.80;;;2.17;;
50932;SDS011;36921;49.006;9.292;2024-02-26T09:10:57;4.53;;;2.05;;
50932;SDS011;36921;49.006;9.292;2024-02-26T09:13:23;2.50;;;1.60;;
50932;SDS011;36921;49.006;9.292;2024-02-26T09:15:48;2.42;;;1.40;;
50932;SDS011;36921;49.006;9.292;2024-02-26T09:18:14;2.67;;;1.17;;
50932;SDS011;36921;49.006;9.292;2024-02-26T09:20:40;2.70;;;1.50;;
50932;SDS011;36921;49.006;9.292;2024-02-26T09:23:06;6.22;;;1.95;;
50932;SDS011;36921;49.006;9.292;2024-02-26T09:25:31;8.23;;;2.08;;
50932;SDS011;36921;49.006;9.292;2024-02-26T09:27:58;3.35;;;1.50;;
50932;SDS011;36921;49.006;9.292;2024-02-26T09:30:24;2.45;;;1.67;;
50932;SDS011;36921;49.006;9.292;2024-02-26T09:32:50;3.10;;;1.83;;
50932;SDS011;36921;49.006;9.292;2024-02-26T09:35:18;3.15;;;1.70;;
50932;SDS011;36921;49.006;9.292;2024-02-26T09:37:44;3.58;;;1.52;;
50932;SDS011;36921;49.006;9.292;2024-02-26T09:40:10;2.20;;;1.48;;
50932;SDS011;36921;49.006;9.292;2024-02-26T09:42:41;2.63;;;1.23;;
50932;SDS011;36921;49.006;9.292;2024-02-26T09:45:09;1.63;;;1.10;;
50932;SDS011;36921;49.006;9.292;2024-02-26T09:47:47;1.92;;;1.05;;
50932;SDS011;36921;49.006;9.292;2024-02-26T09:50:13;2.42;;;1.30;;
50932;SDS011;36921;49.006;9.292;2024-02-26T09:52:42;1.77;;;1.13;;
50932;SDS011;36921;49.006;9.292;2024-02-26T09:55:08;1.35;;;0.93;;
50932;SDS011;36921;49.006;9.292;2024-02-26T09:57:35;2.13;;;1.00;;
50932;SDS011;36921;49.006;9.292;2024-02-26T10:00:03;1.67;;;0.90;;
50932;SDS011;36921;49.006;9.292;2024-02-26T10:02:30;1.42;;;0.80;;
50932;SDS011;36921;49.006;9.292;2024-02-26T10:04:57;1.48;;;0.98;;
50932;SDS011;36921;49.006;9.292;2024-02-26T10:07:26;1.90;;;0.80;;
50932;SDS011;36921;49.006;9.292;2024-02-26T10:09:55;1.23;;;0.70;;
50932;SDS011;36921;49.006;9.292;2024-02-26T10:12:20;0.65;;;0.55;;
50932;SDS011;36921;49.006;9.292;2024-02-26T10:14:47;2.20;;;0.70;;
50932;SDS011;36921;49.006;9.292;2024-02-26T10:17:12;2.28;;;0.60;;
50932;SDS011;36921;49.006;9.292;2024-02-26T10:19:38;0.80;;;0.47;;
50932;SDS011;36921;49.006;9.292;2024-02-26T10:22:03;1.40;;;0.70;;
50932;SDS011;36921;49.006;9.292;2024-02-26T10:24:29;0.95;;;0.60;;
50932;SDS011;36921;49.006;9.292;2024-02-26T10:26:55;1.38;;;0.80;;
50932;SDS011;36921;49.006;9.292;2024-02-26T10:29:23;1.88;;;0.80;;
50932;SDS011;36921;49.006;9.292;2024-02-26T10:31:50;2.83;;;0.85;;
50932;SDS011;36921;49.006;9.292;2024-02-26T10:34:16;1.30;;;1.00;;
50932;SDS011;36921;49.006;9.292;2024-02-26T10:36:42;1.13;;;0.80;;
50932;SDS011;36921;49.006;9.292;2024-02-26T10:39:08;1.35;;;0.82;;
50932;SDS011;36921;49.006;9.292;2024-02-26T10:41:34;1.65;;;0.82;;
50932;SDS011;36921;49.006;9.292;2024-02-26T10:44:00;2.00;;;0.80;;
50932;SDS011;36921;49.006;9.292;2024-02-26T10:46:25;1.85;;;1.13;;
50932;SDS011;36921;49.006;9.292;2024-02-26T10:48:51;1.67;;;0.90;;
50932;SDS011;36921;49.006;9.292;2024-02-26T10:51:20;1.83;;;0.90;;
50932;SDS011;36921;49.006;9.292;2024-02-26T10:56:14;0.70;;;0.60;;
50932;SDS011;36921;49.006;9.292;2024-02-26T10:58:41;0.88;;;0.50;;
50932;SDS011;36921;49.006;9.292;2024-02-26T11:01:07;1.95;;;0.65;;
50932;SDS011;36921;49.006;9.292;2024-02-26T11:03:34;0.77;;;0.70;;
50932;SDS011;36921;49.006;9.292;2024-02-26T11:06:01;1.40;;;0.80;;
50932;SDS011;36921;49.006;9.292;2024-02-26T11:08:28;1.33;;;0.80;;
50932;SDS011;36921;49.006;9.292;2024-02-26T11:10:55;0.90;;;0.60;;
50932;SDS011;36921;49.006;9.292;2024-02-26T11:13:21;1.65;;;0.70;;
50932;SDS011;36921;49.006;9.292;2024-02-26T11:15:51;1.38;;;0.65;;
50932;SDS011;36921;49.006;9.292;2024-02-26T11:18:19;1.85;;;0.70;;
50932;SDS011;36921;49.006;9.292;2024-02-26T11:20:48;0.95;;;0.60;;
50932;SDS011;36921;49.006;9.292;2024-02-26T11:23:14;0.80;;;0.60;;
50932;SDS011;36921;49.006;9.292;2024-02-26T11:25:40;0.80;;;0.47;;
50932;SDS011;36921;49.006;9.292;2024-02-26T11:28:06;1.60;;;0.40;;
50932;SDS011;36921;49.006;9.292;2024-02-26T11:30:38;0.57;;;0.38;;
50932;SDS011;36921;49.006;9.292;2024-02-26T11:33:09;0.45;;;0.30;;
50932;SDS011;36921;49.006;9.292;2024-02-26T11:35:37;0.88;;;0.40;;
50932;SDS011;36921;49.006;9.292;2024-02-26T11:38:03;0.57;;;0.50;;
50932;SDS011;36921;49.006;9.292;2024-02-26T11:40:30;0.88;;;0.57;;
50932;SDS011;36921;49.006;9.292;2024-02-26T11:42:56;0.85;;;0.50;;
50932;SDS011;36921;49.006;9.292;2024-02-26T11:48:16;0.88;;;0.40;;
50932;SDS011;36921;49.006;9.292;2024-02-26T11:53:24;0.60;;;0.50;;
50932;SDS011;36921;49.006;9.292;2024-02-26T11:58:43;1.65;;;0.50;;
50932;SDS011;36921;49.006;9.292;2024-02-26T12:04:13;0.90;;;0.50;;
50932;SDS011;36921;49.006;9.292;2024-02-26T12:06:46;1.33;;;0.70;;
50932;SDS011;36921;49.006;9.292;2024-02-26T12:09:13;1.35;;;0.30;;
50932;SDS011;36921;49.006;9.292;2024-02-26T12:11:39;0.30;;;0.30;;
50932;SDS011;36921;49.006;9.292;2024-02-26T12:14:05;0.52;;;0.30;;
50932;SDS011;36921;49.006;9.292;2024-02-26T12:16:36;4.25;;;0.40;;
50932;SDS011;36921;49.006;9.292;2024-02-26T12:19:06;0.30;;;0.15;;
50932;SDS011;36921;49.006;9.292;2024-02-26T12:21:34;0.50;;;0.30;;
50932;SDS011;36921;49.006;9.292;2024-02-26T12:24:12;1.10;;;0.38;;
50932;SDS011;36921;49.006;9.292;2024-02-26T12:26:39;0.30;;;0.30;;
50932;SDS011;36921;49.006;9.292;2024-02-26T12:29:05;0.52;;;0.20;;
50932;SDS011;36921;49.006;9.292;2024-02-26T12:31:31;0.60;;;0.20;;
50932;SDS011;36921;49.006;9.292;2024-02-26T12:33:58;0.20;;;0.20;;
50932;SDS011;36921;49.006;9.292;2024-02-26T12:36:24;1.08;;;0.40;;
50932;SDS011;36921;49.006;9.292;2024-02-26T12:38:52;0.20;;;0.20;;
50932;SDS011;36921;49.006;9.292;2024-02-26T12:41:18;0.73;;;0.20;;
50932;SDS011;36921;49.006;9.292;2024-02-26T12:43:43;0.17;;;0.10;;
50932;SDS011;36921;49.006;9.292;2024-02-26T12:46:09;0.63;;;0.30;;
50932;SDS011;36921;49.006;9.292;2024-02-26T12:48:36;0.60;;;0.32;;
50932;SDS011;36921;49.006;9.292;2024-02-26T12:51:01;2.53;;;0.40;;
50932;SDS011;36921;49.006;9.292;2024-02-26T12:53:27;2.50;;;0.70;;
50932;SDS011;36921;49.006;9.292;2024-02-26T12:55:53;1.10;;;0.40;;
50932;SDS011;36921;49.006;9.292;2024-02-26T12:58:20;0.50;;;0.30;;
50932;SDS011;36921;49.006;9.292;2024-02-26T13:00:49;0.32;;;0.30;;
50932;SDS011;36921;49.006;9.292;2024-02-26T13:03:16;0.63;;;0.32;;
50932;SDS011;36921;49.006;9.292;2024-02-26T13:05:42;0.77;;;0.30;;
50932;SDS011;36921;49.006;9.292;2024-02-26T13:08:07;0.35;;;0.20;;
50932;SDS011;36921;49.006;9.292;2024-02-26T13:10:33;1.85;;;0.22;;
50932;SDS011;36921;49.006;9.292;2024-02-26T13:13:01;0.32;;;0.13;;
50932;SDS011;36921;49.006;9.292;2024-02-26T13:15:27;0.22;;;0.20;;
50932;SDS011;36921;49.006;9.292;2024-02-26T13:17:53;0.65;;;0.20;;
50932;SDS011;36921;49.006;9.292;2024-02-26T13:20:27;0.70;;;0.30;;
50932;SDS011;36921;49.006;9.292;2024-02-26T13:23:06;0.47;;;0.20;;
50932;SDS011;36921;49.006;9.292;2024-02-26T13:25:34;0.32;;;0.20;;
50932;SDS011;36921;49.006;9.292;2024-02-26T13:28:07;0.73;;;0.30;;
50932;SDS011;36921;49.006;9.292;2024-02-26T13:30:34;0.80;;;0.35;;
50932;SDS011;36921;49.006;9.292;2024-02-26T13:33:11;0.45;;;0.10;;
50932;SDS011;36921;49.006;9.292;2024-02-26T13:35:40;0.15;;;0.00;;
50932;SDS011;36921;49.006;9.292;2024-02-26T13:38:06;0.23;;;0.20;;
50932;SDS011;36921;49.006;9.292;2024-02-26T13:40:31;0.20;;;0.08;;
50932;SDS011;36921;49.006;9.292;2024-02-26T13:42:57;0.20;;;0.15;;
50932;SDS011;36921;49.006;9.292;2024-02-26T13:45:22;0.47;;;0.17;;
50932;SDS011;36921;49.006;9.292;2024-02-26T13:47:48;0.10;;;0.10;;
50932;SDS011;36921;49.006;9.292;2024-02-26T13:50:13;0.38;;;0.10;;
50932;SDS011;36921;49.006;9.292;2024-02-26T13:52:38;1.17;;;0.10;;
50932;SDS011;36921;49.006;9.292;2024-02-26T13:55:04;0.10;;;0.08;;
50932;SDS011;36921;49.006;9.292;2024-02-26T13:57:29;0.10;;;0.03;;
50932;SDS011;36921;49.006;9.292;2024-02-26T13:59:55;0.30;;;0.10;;
50932;SDS011;36921;49.006;9.292;2024-02-26T14:02:20;0.95;;;0.10;;
50932;SDS011;36921;49.006;9.292;2024-02-26T14:04:46;0.10;;;0.00;;
50932;SDS011;36921;49.006;9.292;2024-02-26T14:07:12;0.75;;;0.28;;
50932;SDS011;36921;49.006;9.292;2024-02-26T14:09:38;0.20;;;0.10;;
50932;SDS011;36921;49.006;9.292;2024-02-26T14:12:03;0.00;;;0.00;;
50932;SDS011;36921;49.006;9.292;2024-02-26T14:14:29;1.00;;;0.13;;
50932;SDS011;36921;49.006;9.292;2024-02-26T14:16:57;0.10;;;0.00;;
50932;SDS011;36921;49.006;9.292;2024-02-26T14:19:23;0.30;;;0.20;;
50932;SDS011;36921;49.006;9.292;2024-02-26T14:21:48;0.10;;;0.08;;
50932;SDS011;36921;49.006;9.292;2024-02-26T14:24:13;1.35;;;0.10;;
50932;SDS011;36921;49.006;9.292;2024-02-26T14:26:39;0.30;;;0.10;;
50932;SDS011;36921;49.006;9.292;2024-02-26T14:29:05;0.35;;;0.10;;
50932;SDS011;36921;49.006;9.292;2024-02-26T14:31:31;0.22;;;0.05;;
50932;SDS011;36921;49.006;9.292;2024-02-26T14:33:57;0.63;;;0.20;;
50932;SDS011;36921;49.006;9.292;2024-02-26T14:36:22;1.95;;;0.00;;
50932;SDS011;36921;49.006;9.292;2024-02-26T14:38:48;0.32;;;0.20;;
50932;SDS011;36921;49.006;9.292;2024-02-26T14:41:13;0.20;;;0.10;;
50932;SDS011;36921;49.006;9.292;2024-02-26T14:43:38;0.40;;;0.10;;
50932;SDS011;36921;49.006;9.292;2024-02-26T14:46:04;2.35;;;0.30;;
50932;SDS011;36921;49.006;9.292;2024-02-26T14:48:29;0.10;;;0.10;;
50932;SDS011;36921;49.006;9.292;2024-02-26T14:50:55;0.30;;;0.15;;
50932;SDS011;36921;49.006;9.292;2024-02-26T14:53:21;2.92;;;0.20;;
50932;SDS011;36921;49.006;9.292;2024-02-26T14:55:46;0.25;;;0.10;;
50932;SDS011;36921;49.006;9.292;2024-02-26T14:58:15;0.03;;;0.00;;
50932;SDS011;36921;49.006;9.292;2024-02-26T15:00:46;1.40;;;0.35;;